createdAt,value
2018-02-16T00:02:23.704Z,96.97
2018-02-16T00:04:52.114Z,97.17
2018-02-16T00:07:20.423Z,97.40
2018-02-16T00:09:48.736Z,97.27
2018-02-16T00:12:17.163Z,97.37
2018-02-16T00:14:45.755Z,97.59
2018-02-16T00:17:14.483Z,97.63
2018-02-16T00:19:42.843Z,97.73
2018-02-16T00:22:13.919Z,97.93
2018-02-16T00:24:42.925Z,98.01
2018-02-16T00:27:11.261Z,98.10
2018-02-16T00:29:40.144Z,98.06
2018-02-16T00:32:08.458Z,98.21
2018-02-16T00:34:37.000Z,98.26
2018-02-16T00:37:05.815Z,98.32
2018-02-16T00:39:34.133Z,98.31
2018-02-16T00:42:02.443Z,98.39
2018-02-16T00:44:30.792Z,98.50
2018-02-16T00:46:59.097Z,98.58
2018-02-16T00:49:28.001Z,98.55
2018-02-16T00:51:56.370Z,98.44
2018-02-16T00:54:24.760Z,98.33
2018-02-16T00:56:53.067Z,98.12
2018-02-16T00:59:21.488Z,98.18
2018-02-16T01:01:51.194Z,98.15
2018-02-16T01:04:19.509Z,97.91
2018-02-16T01:06:48.340Z,97.57
2018-02-16T01:09:16.649Z,97.23
2018-02-16T01:11:44.951Z,96.94
2018-02-16T01:14:13.688Z,96.67
2018-02-16T01:16:41.992Z,96.36
2018-02-16T01:19:10.295Z,96.16
2018-02-16T01:21:38.636Z,95.93
2018-02-16T01:24:08.044Z,95.84
2018-02-16T01:26:36.119Z,95.73
2018-02-16T01:29:04.245Z,95.55
2018-02-16T01:31:32.560Z,95.42
2018-02-16T01:34:01.078Z,95.28
2018-02-16T01:36:29.408Z,95.16
2018-02-16T01:38:57.760Z,95.08
2018-02-16T01:41:26.091Z,95.24
2018-02-16T01:43:54.399Z,95.54
2018-02-16T01:46:22.812Z,95.44
2018-02-16T01:48:51.120Z,95.30
2018-02-16T01:51:19.456Z,95.37
2018-02-16T01:53:48.772Z,95.15
2018-02-16T01:56:17.801Z,94.94
2018-02-16T01:58:46.123Z,94.84
2018-02-16T02:01:15.344Z,94.82
2018-02-16T02:03:43.652Z,94.69
2018-02-16T02:06:11.960Z,94.63
2018-02-16T02:08:40.558Z,94.59
2018-02-16T02:11:08.863Z,94.57
2018-02-16T02:13:37.385Z,94.38
2018-02-16T02:16:05.815Z,94.10
2018-02-16T02:18:34.132Z,94.44
2018-02-16T02:21:02.439Z,95.79
2018-02-16T02:23:30.887Z,96.26
2018-02-16T02:25:59.195Z,96.14
2018-02-16T02:28:28.634Z,95.99
2018-02-16T02:30:57.020Z,95.83
2018-02-16T02:33:25.372Z,95.82
2018-02-16T02:35:53.823Z,95.71
2018-02-16T02:38:22.263Z,95.70
2018-02-16T02:40:51.332Z,95.69
2018-02-16T02:43:19.644Z,95.79
2018-02-16T02:45:48.791Z,96.11
2018-02-16T02:48:17.095Z,96.15
2018-02-16T02:50:45.407Z,96.00
2018-02-16T02:53:13.756Z,95.79
2018-02-16T02:55:42.060Z,95.65
2018-02-16T02:58:11.091Z,95.37
2018-02-16T03:00:39.466Z,95.21
2018-02-16T03:03:07.527Z,95.11
2018-02-16T03:05:35.848Z,95.44
2018-02-16T03:08:05.704Z,95.57
2018-02-16T03:10:34.024Z,95.47
2018-02-16T03:13:02.631Z,95.40
2018-02-16T03:15:31.387Z,95.42
2018-02-16T03:17:59.699Z,95.51
2018-02-16T03:20:28.039Z,95.51
2018-02-16T03:22:56.781Z,95.42
2018-02-16T03:25:25.873Z,95.38
2018-02-16T03:27:54.709Z,95.29
2018-02-16T03:30:23.124Z,95.29
2018-02-16T03:32:51.438Z,95.29
2018-02-16T03:35:19.816Z,95.40
2018-02-16T03:37:48.124Z,95.29
2018-02-16T03:40:17.143Z,95.44
2018-02-16T03:42:45.504Z,95.82
2018-02-16T03:45:13.816Z,96.07
2018-02-16T03:47:42.128Z,95.86
2018-02-16T03:50:10.467Z,95.87
2018-02-16T03:52:38.772Z,95.65
2018-02-16T03:55:07.083Z,95.44
2018-02-16T03:57:35.731Z,95.33
2018-02-16T04:00:04.039Z,95.69
2018-02-16T04:02:32.379Z,95.53
2018-02-16T04:05:00.715Z,95.47
2018-02-16T04:07:29.032Z,95.44
2018-02-16T04:09:58.116Z,95.49
2018-02-16T04:12:27.251Z,95.34
2018-02-16T04:14:55.555Z,95.34
2018-02-16T04:17:23.872Z,95.22
2018-02-16T04:19:52.216Z,95.30
2018-02-16T04:22:20.516Z,95.35
2018-02-16T04:24:49.978Z,95.33
2018-02-16T04:27:18.291Z,95.49
2018-02-16T04:29:46.600Z,95.46
2018-02-16T04:32:15.807Z,95.60
2018-02-16T04:34:44.116Z,95.46
2018-02-16T04:37:12.419Z,95.29
2018-02-16T04:39:40.780Z,95.53
2018-02-16T04:42:09.119Z,95.54
2018-02-16T04:44:37.560Z,95.33
2018-02-16T04:47:05.929Z,95.09
2018-02-16T04:49:34.239Z,95.84
2018-02-16T04:52:03.314Z,95.97
2018-02-16T04:54:32.040Z,95.80
2018-02-16T04:57:00.347Z,95.82
2018-02-16T04:59:28.663Z,95.49
2018-02-16T05:01:57.040Z,95.16
2018-02-16T05:04:26.123Z,95.06
2018-02-16T05:06:54.434Z,94.96
2018-02-16T05:09:24.144Z,94.86
2018-02-16T05:11:52.520Z,94.64
2018-02-16T05:14:20.826Z,94.53
2018-02-16T05:16:49.159Z,94.45
2018-02-16T05:19:18.514Z,94.51
2018-02-16T05:21:46.828Z,94.47
2018-02-16T05:24:18.805Z,94.46
2018-02-16T05:26:47.728Z,94.41
2018-02-16T05:29:16.219Z,94.24
2018-02-16T05:31:44.568Z,94.17
2018-02-16T05:34:13.913Z,94.29
2018-02-16T05:36:42.223Z,94.37
2018-02-16T05:39:10.575Z,94.39
2018-02-16T05:41:39.903Z,94.15
2018-02-16T05:44:08.903Z,93.95
2018-02-16T05:46:37.795Z,93.88
2018-02-16T05:49:06.125Z,93.89
2018-02-16T05:51:34.428Z,94.04
2018-02-16T05:54:02.915Z,94.17
2018-02-16T05:56:31.240Z,94.12
2018-02-16T05:58:59.557Z,94.01
2018-02-16T06:01:27.904Z,94.21
2018-02-16T06:03:56.847Z,94.29
2018-02-16T06:06:25.147Z,94.22
2018-02-16T06:08:53.516Z,94.06
2018-02-16T06:11:21.823Z,93.75
2018-02-16T06:13:50.445Z,93.60
2018-02-16T06:16:18.807Z,93.47
2018-02-16T06:18:47.119Z,93.74
2018-02-16T06:21:15.428Z,93.62
2018-02-16T06:23:44.741Z,94.12
2018-02-16T06:26:13.618Z,94.23
2018-02-16T06:28:42.503Z,94.22
2018-02-16T06:31:11.637Z,94.25
2018-02-16T06:33:39.952Z,94.14
2018-02-16T06:36:08.264Z,94.39
2018-02-16T06:38:36.712Z,94.20
2018-02-16T06:41:05.019Z,94.03
2018-02-16T06:43:33.327Z,93.88
2018-02-16T06:46:01.675Z,93.97
2018-02-16T06:48:29.976Z,94.15
2018-02-16T06:50:59.045Z,94.27
2018-02-16T06:53:28.255Z,94.32
2018-02-16T06:55:56.569Z,94.28
2018-02-16T06:58:25.145Z,94.27
2018-02-16T07:00:53.792Z,94.12
2018-02-16T07:03:22.141Z,94.14
2018-02-16T07:05:50.415Z,93.96
2018-02-16T07:08:18.780Z,93.68
2018-02-16T07:10:47.084Z,93.46
2018-02-16T07:13:16.155Z,93.32
2018-02-16T07:15:44.513Z,93.19
2018-02-16T07:18:12.812Z,92.95
2018-02-16T07:20:41.607Z,92.68
2018-02-16T07:23:09.972Z,92.88
2018-02-16T07:25:38.284Z,92.80
2018-02-16T07:28:06.588Z,92.07
2018-02-16T07:30:35.523Z,91.70
2018-02-16T07:33:03.827Z,91.21
2018-02-16T07:35:32.904Z,90.53
2018-02-16T07:38:01.268Z,89.85
2018-02-16T07:40:29.583Z,89.31
2018-02-16T07:42:57.925Z,88.53
2018-02-16T07:45:26.376Z,88.77
2018-02-16T07:47:54.687Z,89.18
2018-02-16T07:50:23.007Z,89.09
2018-02-16T07:52:51.376Z,89.33
2018-02-16T07:55:19.700Z,89.25
2018-02-16T07:57:48.029Z,90.39
2018-02-16T08:00:16.367Z,90.50
2018-02-16T08:02:44.673Z,90.05
2018-02-16T08:05:12.981Z,89.50
2018-02-16T08:07:41.344Z,88.83
2018-02-16T08:10:10.416Z,87.92
2018-02-16T08:12:38.711Z,86.60
2018-02-16T08:15:07.816Z,85.29
2018-02-16T08:17:36.131Z,84.88
2018-02-16T08:20:04.431Z,84.57
2018-02-16T08:22:32.775Z,87.20
2018-02-16T08:25:01.081Z,85.89
2018-02-16T08:27:29.296Z,85.93
2018-02-16T08:29:57.647Z,87.37
2018-02-16T08:32:25.947Z,85.77
2018-02-16T08:34:55.007Z,86.47
2018-02-16T08:37:23.352Z,87.79
2018-02-16T08:39:51.655Z,86.73
2018-02-16T08:42:19.980Z,87.42
2018-02-16T08:44:48.326Z,87.58
2018-02-16T08:47:16.623Z,88.00
2018-02-16T08:49:45.756Z,88.91
2018-02-16T08:52:14.084Z,88.64
2018-02-16T08:54:42.389Z,88.70
2018-02-16T08:57:10.707Z,87.31
2018-02-16T08:59:39.081Z,87.91
2018-02-16T09:02:07.440Z,88.44
2018-02-16T09:04:35.743Z,87.77
2018-02-16T09:07:04.113Z,86.38
2018-02-16T09:09:32.424Z,84.91
2018-02-16T09:12:00.736Z,82.67
2018-02-16T09:14:29.113Z,83.58
2018-02-16T09:16:57.415Z,80.86
2018-02-16T09:19:25.717Z,79.16
2018-02-16T09:21:54.585Z,75.88
2018-02-16T09:24:22.891Z,73.28
2018-02-16T09:26:51.190Z,71.89
2018-02-16T09:29:19.309Z,76.48
2018-02-16T09:31:47.888Z,77.18
2018-02-16T09:34:16.196Z,77.14
2018-02-16T09:36:44.624Z,74.26
2018-02-16T09:39:19.424Z,73.84
2018-02-16T09:41:47.784Z,72.31
2018-02-16T09:44:16.287Z,73.11
2018-02-16T09:46:44.632Z,71.78
2018-02-16T09:49:12.991Z,71.38
2018-02-16T09:51:41.291Z,70.84
2018-02-16T09:54:10.212Z,69.81
2018-02-16T09:56:38.559Z,70.26
2018-02-16T09:59:06.855Z,69.93
2018-02-16T10:01:35.151Z,71.51
2018-02-16T10:04:03.588Z,71.74
2018-02-16T10:06:31.891Z,69.95
2018-02-16T10:09:00.195Z,73.01
2018-02-16T10:11:29.401Z,71.34
2018-02-16T10:13:57.716Z,69.26
2018-02-16T10:16:26.408Z,66.69
2018-02-16T10:18:54.877Z,69.37
2018-02-16T10:21:23.180Z,70.20
2018-02-16T10:23:51.495Z,70.34
2018-02-16T10:26:20.616Z,70.04
2018-02-16T10:28:48.919Z,69.22
2018-02-16T10:31:17.226Z,67.09
2018-02-16T10:33:46.373Z,66.67
2018-02-16T10:36:14.720Z,65.72
2018-02-16T10:38:43.536Z,65.32
2018-02-16T10:41:11.872Z,65.13
2018-02-16T10:43:40.188Z,66.96
2018-02-16T10:46:08.504Z,67.33
2018-02-16T10:48:36.624Z,67.05
2018-02-16T10:51:04.940Z,67.01
2018-02-16T10:53:33.508Z,71.03
2018-02-16T10:56:01.899Z,68.80
2018-02-16T10:58:30.830Z,71.75
2018-02-16T11:01:04.654Z,70.82
2018-02-16T11:03:33.285Z,73.26
2018-02-16T11:06:01.867Z,71.37
2018-02-16T11:21:52.215Z,69.29
2018-02-16T11:24:20.572Z,70.57
2018-02-16T11:26:49.651Z,68.32
2018-02-16T11:29:17.980Z,68.50
2018-02-16T11:31:47.427Z,66.73
2018-02-16T11:34:15.731Z,70.59
2018-02-16T11:36:44.324Z,68.03
2018-02-16T11:39:12.673Z,67.09
2018-02-16T11:41:40.979Z,65.79
2018-02-16T11:44:10.052Z,66.49
2018-02-16T11:46:38.390Z,65.52
2018-02-16T11:49:06.869Z,66.39
2018-02-16T11:51:35.184Z,67.26
2018-02-16T11:54:03.560Z,65.44
2018-02-16T11:56:31.873Z,64.58
2018-02-16T11:59:00.187Z,66.32
2018-02-16T12:01:28.536Z,65.76
2018-02-16T12:03:56.839Z,67.11
2018-02-16T12:06:25.144Z,69.32
2018-02-16T12:08:53.508Z,68.81
2018-02-16T12:11:21.810Z,68.51
2018-02-16T12:13:50.119Z,71.09
2018-02-16T12:16:18.475Z,69.83
2018-02-16T12:18:47.547Z,67.78
2018-02-16T12:21:15.847Z,67.43
2018-02-16T12:23:44.949Z,63.93
2018-02-16T12:26:14.023Z,63.99
2018-02-16T12:28:42.336Z,63.15
2018-02-16T12:31:10.691Z,64.87
2018-02-16T12:33:39.132Z,65.20
2018-02-16T12:36:07.764Z,65.18
2018-02-16T12:38:36.688Z,66.82
2018-02-16T12:41:05.019Z,65.79
2018-02-16T12:43:33.324Z,67.17
2018-02-16T12:46:01.761Z,68.61
2018-02-16T12:48:30.064Z,67.55
2018-02-16T12:50:58.376Z,68.72
2018-02-16T12:53:26.815Z,67.49
2018-02-16T12:55:55.120Z,64.58
2018-02-16T12:58:23.451Z,64.85
2018-02-16T13:00:51.800Z,62.24
2018-02-16T13:03:20.127Z,62.54
2018-02-16T13:05:48.658Z,61.89
2018-02-16T13:08:17.140Z,62.74
2018-02-16T13:10:46.099Z,62.40
2018-02-16T13:13:15.183Z,62.99
2018-02-16T13:15:44.315Z,63.39
2018-02-16T13:18:13.003Z,65.54
2018-02-16T13:20:41.318Z,65.83
2018-02-16T13:23:09.640Z,67.39
2018-02-16T13:25:38.073Z,67.47
2018-02-16T13:28:06.386Z,67.56
2018-02-16T13:30:34.771Z,66.05
2018-02-16T13:33:03.879Z,65.27
2018-02-16T13:35:32.227Z,63.78
2018-02-16T13:38:00.883Z,63.99
2018-02-16T13:40:29.201Z,68.27
2018-02-16T13:42:57.524Z,66.39
2018-02-16T13:45:25.908Z,66.18
2018-02-16T13:47:54.312Z,65.30
2018-02-16T13:50:23.287Z,65.12
2018-02-16T13:52:52.455Z,63.74
2018-02-16T13:55:20.803Z,63.57
2018-02-16T13:57:49.148Z,63.05
2018-02-16T14:00:18.679Z,60.69
2018-02-16T14:02:46.827Z,59.52
2018-02-16T14:05:15.432Z,60.17
2018-02-16T14:07:43.750Z,59.84
2018-02-16T14:10:11.916Z,59.73
2018-02-16T14:12:40.282Z,59.90
2018-02-16T14:15:08.600Z,59.53
2018-02-16T14:17:36.959Z,60.82
2018-02-16T14:20:06.095Z,58.60
2018-02-16T14:22:34.216Z,58.77
2018-02-16T14:25:02.581Z,59.88
2018-02-16T14:27:31.659Z,59.51
2018-02-16T14:30:00.016Z,61.03
2018-02-16T14:32:28.339Z,61.73
2018-02-16T14:34:56.670Z,64.09
2018-02-16T14:37:25.640Z,63.83
2018-02-16T14:39:54.499Z,63.18
2018-02-16T14:42:23.588Z,62.80
2018-02-16T14:44:52.668Z,63.39
2018-02-16T14:47:21.104Z,63.68
2018-02-16T14:49:49.444Z,64.15
2018-02-16T14:52:18.519Z,63.82
2018-02-16T14:54:46.943Z,63.19
2018-02-16T14:57:15.088Z,63.51
2018-02-16T14:59:43.395Z,63.56
2018-02-16T15:02:11.467Z,63.60
2018-02-16T15:04:39.894Z,63.41
2018-02-16T15:07:08.182Z,64.62
2018-02-16T15:09:37.301Z,63.81
2018-02-16T15:12:06.733Z,64.85
2018-02-16T15:14:35.148Z,65.08
2018-02-16T15:17:03.263Z,64.56
2018-02-16T15:19:32.123Z,65.37
2018-02-16T15:22:00.436Z,66.06
2018-02-16T15:24:28.752Z,67.41
2018-02-16T15:26:57.108Z,69.38
2018-02-16T15:29:25.467Z,69.28
2018-02-16T15:31:53.580Z,68.85
2018-02-16T15:34:21.793Z,68.77
2018-02-16T15:36:50.113Z,69.38
2018-02-16T15:39:18.434Z,70.33
2018-02-16T15:41:46.547Z,72.01
2018-02-16T15:44:14.868Z,73.61
2018-02-16T15:46:43.183Z,74.77
2018-02-16T15:49:11.523Z,76.12
2018-02-16T15:51:40.487Z,77.16
2018-02-16T15:54:08.793Z,77.89
2018-02-16T15:56:37.127Z,79.05
2018-02-16T15:59:05.477Z,79.80
2018-02-16T16:01:34.556Z,80.76
2018-02-16T16:04:02.915Z,81.29
2018-02-16T16:06:31.866Z,81.60
2018-02-16T16:09:00.196Z,81.77
2018-02-16T16:11:28.539Z,82.25
2018-02-16T16:13:57.928Z,83.08
2018-02-16T16:16:26.340Z,83.67
2018-02-16T16:18:54.673Z,84.27
2018-02-16T16:21:23.003Z,84.59
2018-02-16T16:23:51.376Z,84.97
2018-02-16T16:26:19.691Z,85.34
2018-02-16T16:28:48.435Z,86.09
2018-02-16T16:31:17.704Z,86.82
2018-02-16T16:33:46.008Z,86.92
2018-02-16T16:36:14.376Z,86.98
2018-02-16T16:38:42.684Z,87.26
2018-02-16T16:41:10.987Z,87.29
2018-02-16T16:43:39.880Z,87.42
2018-02-16T16:46:08.198Z,87.47
2018-02-16T16:48:36.512Z,87.56
2018-02-16T16:51:04.951Z,87.64
2018-02-16T16:53:33.261Z,88.13
2018-02-16T16:56:01.599Z,88.45
2018-02-16T16:58:29.980Z,88.61
2018-02-16T17:00:58.276Z,89.18
2018-02-16T17:03:26.579Z,89.45
2018-02-16T17:05:54.955Z,89.77
2018-02-16T17:08:23.272Z,90.08
2018-02-16T17:10:51.736Z,90.12
2018-02-16T17:13:20.573Z,90.24
2018-02-16T17:15:49.231Z,90.68
2018-02-16T17:18:17.584Z,90.82
2018-02-16T17:20:45.775Z,90.87
2018-02-16T17:23:15.840Z,90.92
2018-02-16T17:25:45.537Z,91.14
2018-02-16T17:28:13.948Z,91.55
2018-02-16T17:30:42.252Z,91.48
2018-02-16T17:33:13.596Z,91.61
2018-02-16T17:35:41.918Z,91.76
2018-02-16T17:38:10.226Z,91.92
2018-02-16T17:40:38.692Z,91.86
2018-02-16T17:43:07.571Z,91.70
2018-02-16T17:45:36.576Z,91.67
2018-02-16T17:48:05.383Z,91.97
2018-02-16T17:50:34.686Z,92.08
2018-02-16T17:53:03.903Z,92.15
2018-02-16T17:55:45.294Z,92.29
2018-02-16T17:58:13.920Z,92.57
2018-02-16T18:00:43.355Z,92.89
2018-02-16T18:03:11.864Z,92.88
2018-02-16T18:05:40.959Z,93.01
2018-02-16T18:08:10.044Z,93.15
2018-02-16T18:10:38.442Z,93.15
2018-02-16T18:13:06.744Z,93.30
2018-02-16T18:15:35.057Z,93.62
2018-02-16T18:18:03.423Z,94.04
2018-02-16T18:20:31.728Z,93.95
2018-02-16T18:23:00.036Z,93.86
2018-02-16T18:25:28.553Z,94.69
2018-02-16T18:27:56.876Z,95.06
2018-02-16T18:30:25.216Z,95.05
2018-02-16T18:32:53.565Z,95.63
2018-02-16T18:35:21.883Z,95.76
2018-02-16T18:37:50.223Z,95.83
2018-02-16T18:40:18.580Z,95.38
2018-02-16T18:42:46.898Z,94.87
2018-02-16T18:45:15.627Z,94.67
2018-02-16T18:47:44.826Z,94.44
2018-02-16T18:50:13.903Z,94.26
2018-02-16T18:52:42.256Z,94.43
2018-02-16T18:55:10.575Z,94.47
2018-02-16T18:57:38.885Z,94.49
2018-02-16T19:00:08.036Z,94.63
2018-02-16T19:02:36.395Z,94.77
2018-02-16T19:05:07.677Z,94.97
2018-02-16T19:07:36.020Z,94.87
2018-02-16T19:10:04.332Z,94.68
2018-02-16T19:12:32.530Z,94.68
2018-02-16T19:15:00.780Z,94.68
2018-02-16T19:17:29.088Z,94.50
2018-02-16T19:19:57.875Z,94.63
2018-02-16T19:22:26.197Z,94.43
2018-02-16T19:24:54.775Z,94.29
2018-02-16T19:27:23.326Z,94.07
2018-02-16T19:29:51.664Z,94.04
2018-02-16T19:32:20.548Z,94.19
2018-02-16T19:34:49.312Z,94.48
2018-02-16T19:37:18.367Z,94.58
2018-02-16T19:39:46.808Z,94.60
2018-02-16T19:42:15.969Z,94.64
2018-02-16T19:44:44.316Z,94.56
2018-02-16T19:47:13.299Z,94.30
2018-02-16T19:49:41.652Z,94.09
2018-02-16T19:52:13.809Z,93.86
2018-02-16T19:54:46.992Z,93.81
2018-02-16T19:57:16.125Z,93.75
2018-02-16T19:59:44.548Z,93.71
2018-02-16T20:02:13.191Z,94.00
2018-02-16T20:04:41.972Z,93.82
2018-02-16T20:07:10.347Z,93.79
2018-02-16T20:09:40.887Z,94.36
2018-02-16T20:12:09.256Z,95.53
2018-02-16T20:14:38.010Z,96.12
2018-02-16T20:17:06.544Z,95.76
2018-02-16T20:19:34.864Z,95.23
2018-02-16T20:22:04.681Z,94.73
2018-02-16T20:24:33.219Z,94.70
2018-02-16T20:27:02.050Z,94.79
2018-02-16T20:29:31.879Z,94.53
2018-02-16T20:32:01.027Z,94.37
2018-02-16T20:34:30.113Z,94.57
2018-02-16T20:36:59.330Z,94.73
2018-02-16T20:39:27.754Z,94.45
2018-02-16T20:41:56.073Z,94.18
2018-02-16T20:44:24.384Z,94.02
2018-02-16T20:46:53.361Z,93.92
2018-02-16T20:49:21.667Z,94.29
2018-02-16T20:51:50.125Z,94.62
2018-02-16T20:54:19.059Z,94.72
2018-02-16T20:56:48.100Z,94.75
2018-02-16T20:59:16.416Z,94.59
2018-02-16T21:01:45.146Z,94.34
2018-02-16T21:04:13.541Z,94.21
2018-02-16T21:06:42.016Z,94.27
2018-02-16T21:09:10.468Z,94.07
2018-02-16T21:11:38.788Z,94.08
2018-02-16T21:14:07.108Z,94.02
2018-02-16T21:16:35.508Z,94.19
2018-02-16T21:19:03.840Z,94.32
2018-02-16T21:21:32.173Z,94.63
2018-02-16T21:24:00.531Z,94.70
2018-02-16T21:26:28.913Z,94.83
2018-02-16T21:28:57.223Z,94.85
2018-02-16T21:31:25.617Z,94.58
2018-02-16T21:33:53.903Z,94.23
2018-02-16T21:36:22.983Z,94.22
2018-02-16T21:38:51.307Z,94.17
2018-02-16T21:41:19.662Z,94.78
2018-02-16T21:43:48.264Z,94.74
2018-02-16T21:46:16.645Z,94.58
2018-02-16T21:48:45.012Z,94.55
2018-02-16T21:51:13.476Z,94.78
2018-02-16T21:53:41.982Z,94.99
2018-02-16T21:56:10.285Z,95.00
2018-02-16T21:58:40.104Z,95.00
2018-02-16T22:01:09.232Z,95.27
2018-02-16T22:03:37.552Z,95.61
2018-02-16T22:06:05.909Z,95.70
2018-02-16T22:08:34.932Z,95.23
2018-02-16T22:11:03.416Z,95.02
2018-02-16T22:13:32.588Z,95.12
2018-02-16T22:16:01.381Z,95.16
2018-02-16T22:18:29.744Z,95.13
2018-02-16T22:20:59.213Z,95.25
2018-02-16T22:23:28.508Z,95.21
2018-02-16T22:25:56.839Z,95.18
2018-02-16T22:28:25.164Z,95.33
2018-02-16T22:30:54.311Z,95.65
2018-02-16T22:33:24.083Z,96.09
2018-02-16T22:35:52.961Z,95.81
2018-02-16T22:38:21.352Z,95.58
2018-02-16T22:40:50.461Z,95.95
2018-02-16T22:43:19.600Z,95.87
2018-02-16T22:45:48.524Z,96.16
2018-02-16T22:48:17.612Z,96.13
2018-02-16T22:50:45.976Z,95.92
2018-02-16T22:53:14.300Z,95.64
2018-02-16T22:55:42.696Z,96.43
2018-02-16T22:58:11.021Z,96.78
2018-02-16T23:00:39.350Z,96.85
2018-02-16T23:03:07.707Z,96.90
2018-02-16T23:05:36.043Z,96.65
2018-02-16T23:08:04.428Z,96.35
2018-02-16T23:10:32.761Z,96.15
2018-02-16T23:13:01.083Z,95.93
2018-02-16T23:15:29.431Z,95.68
2018-02-16T23:17:57.760Z,95.55
2018-02-16T23:20:26.119Z,95.55
2018-02-16T23:22:54.435Z,95.47
2018-02-16T23:25:23.304Z,95.31
2018-02-16T23:27:52.395Z,95.33
2018-02-16T23:30:20.739Z,95.40
2018-02-16T23:32:49.129Z,95.82
2018-02-16T23:35:17.455Z,96.03
2018-02-16T23:37:46.460Z,95.87
2018-02-16T23:40:15.211Z,95.53
2018-02-16T23:42:44.249Z,95.28
2018-02-16T23:45:12.577Z,95.21
2018-02-16T23:47:40.956Z,94.93
2018-02-16T23:50:09.285Z,95.30
2018-02-16T23:52:37.774Z,95.50
2018-02-16T23:55:06.901Z,95.69
2018-02-16T23:57:35.272Z,96.08
